sensor_id;sensor_type;location;lat;lon;timestamp;P1;durP1;ratioP1;P2;durP2;ratioP2
76788;SDS011;65740;52.464;13.446;2023-07-31T00:02:00;4.87;;;4.47;;
76788;SDS011;65740;52.464;13.446;2023-07-31T00:04:25;4.30;;;4.00;;
76788;SDS011;65740;52.464;13.446;2023-07-31T00:06:51;4.37;;;4.07;;
76788;SDS011;65740;52.464;13.446;2023-07-31T00:09:17;4.33;;;4.03;;
76788;SDS011;65740;52.464;13.446;2023-07-31T00:11:42;4.77;;;4.37;;
76788;SDS011;65740;52.464;13.446;2023-07-31T00:14:08;4.00;;;3.80;;
76788;SDS011;65740;52.464;13.446;2023-07-31T00:16:33;5.23;;;4.93;;
76788;SDS011;65740;52.464;13.446;2023-07-31T00:18:59;4.80;;;4.50;;
76788;SDS011;65740;52.464;13.446;2023-07-31T00:21:25;3.90;;;3.70;;
76788;SDS011;65740;52.464;13.446;2023-07-31T00:23:50;4.40;;;4.10;;
76788;SDS011;65740;52.464;13.446;2023-07-31T00:26:16;4.23;;;3.93;;
76788;SDS011;65740;52.464;13.446;2023-07-31T00:28:41;4.30;;;4.00;;
76788;SDS011;65740;52.464;13.446;2023-07-31T00:31:07;4.37;;;4.17;;
76788;SDS011;65740;52.464;13.446;2023-07-31T00:33:34;4.20;;;3.80;;
76788;SDS011;65740;52.464;13.446;2023-07-31T00:36:00;4.37;;;4.07;;
76788;SDS011;65740;52.464;13.446;2023-07-31T00:38:26;3.90;;;3.70;;
76788;SDS011;65740;52.464;13.446;2023-07-31T00:40:51;4.13;;;3.83;;
76788;SDS011;65740;52.464;13.446;2023-07-31T00:43:17;3.90;;;3.70;;
76788;SDS011;65740;52.464;13.446;2023-07-31T00:45:43;4.50;;;4.20;;
76788;SDS011;65740;52.464;13.446;2023-07-31T00:48:09;3.93;;;3.63;;
76788;SDS011;65740;52.464;13.446;2023-07-31T00:50:35;4.00;;;3.70;;
76788;SDS011;65740;52.464;13.446;2023-07-31T00:53:01;4.10;;;3.90;;
76788;SDS011;65740;52.464;13.446;2023-07-31T00:55:26;3.80;;;3.60;;
76788;SDS011;65740;52.464;13.446;2023-07-31T00:57:52;4.23;;;3.97;;
76788;SDS011;65740;52.464;13.446;2023-07-31T01:00:20;4.20;;;3.87;;
76788;SDS011;65740;52.464;13.446;2023-07-31T01:02:46;4.00;;;3.80;;
76788;SDS011;65740;52.464;13.446;2023-07-31T01:05:13;3.60;;;3.40;;
76788;SDS011;65740;52.464;13.446;2023-07-31T01:10:16;4.20;;;3.90;;
76788;SDS011;65740;52.464;13.446;2023-07-31T01:12:48;3.87;;;3.57;;
76788;SDS011;65740;52.464;13.446;2023-07-31T01:15:16;4.27;;;4.00;;
76788;SDS011;65740;52.464;13.446;2023-07-31T01:17:42;4.43;;;4.13;;
76788;SDS011;65740;52.464;13.446;2023-07-31T01:27:53;4.27;;;4.07;;
76788;SDS011;65740;52.464;13.446;2023-07-31T01:30:27;3.70;;;3.50;;
76788;SDS011;65740;52.464;13.446;2023-07-31T01:32:54;3.40;;;3.20;;
76788;SDS011;65740;52.464;13.446;2023-07-31T01:35:21;4.03;;;3.83;;
76788;SDS011;65740;52.464;13.446;2023-07-31T01:37:46;4.27;;;4.00;;
76788;SDS011;65740;52.464;13.446;2023-07-31T01:40:12;3.73;;;3.53;;
76788;SDS011;65740;52.464;13.446;2023-07-31T01:42:38;4.20;;;4.00;;
76788;SDS011;65740;52.464;13.446;2023-07-31T01:45:03;3.50;;;3.30;;
76788;SDS011;65740;52.464;13.446;2023-07-31T01:47:29;3.40;;;3.20;;
76788;SDS011;65740;52.464;13.446;2023-07-31T01:49:55;3.80;;;3.60;;
76788;SDS011;65740;52.464;13.446;2023-07-31T01:52:20;3.87;;;3.67;;
76788;SDS011;65740;52.464;13.446;2023-07-31T01:54:46;3.83;;;3.53;;
76788;SDS011;65740;52.464;13.446;2023-07-31T01:57:11;4.27;;;3.97;;
76788;SDS011;65740;52.464;13.446;2023-07-31T01:59:37;4.13;;;3.83;;
76788;SDS011;65740;52.464;13.446;2023-07-31T02:02:03;3.47;;;3.27;;
76788;SDS011;65740;52.464;13.446;2023-07-31T02:04:28;3.70;;;3.50;;
76788;SDS011;65740;52.464;13.446;2023-07-31T02:06:54;3.63;;;3.43;;
76788;SDS011;65740;52.464;13.446;2023-07-31T02:09:19;3.20;;;3.10;;
76788;SDS011;65740;52.464;13.446;2023-07-31T02:11:45;3.60;;;3.40;;
76788;SDS011;65740;52.464;13.446;2023-07-31T02:14:10;3.90;;;3.60;;
76788;SDS011;65740;52.464;13.446;2023-07-31T02:16:36;3.80;;;3.60;;
76788;SDS011;65740;52.464;13.446;2023-07-31T02:19:02;3.77;;;3.57;;
76788;SDS011;65740;52.464;13.446;2023-07-31T02:21:27;3.97;;;3.77;;
76788;SDS011;65740;52.464;13.446;2023-07-31T02:23:53;4.00;;;3.80;;
76788;SDS011;65740;52.464;13.446;2023-07-31T02:26:18;4.53;;;4.23;;
76788;SDS011;65740;52.464;13.446;2023-07-31T02:28:44;3.87;;;3.67;;
76788;SDS011;65740;52.464;13.446;2023-07-31T02:31:10;3.67;;;3.47;;
76788;SDS011;65740;52.464;13.446;2023-07-31T02:33:35;3.67;;;3.47;;
76788;SDS011;65740;52.464;13.446;2023-07-31T02:36:01;3.60;;;3.40;;
76788;SDS011;65740;52.464;13.446;2023-07-31T02:38:26;3.77;;;3.53;;
76788;SDS011;65740;52.464;13.446;2023-07-31T02:40:52;3.83;;;3.63;;
76788;SDS011;65740;52.464;13.446;2023-07-31T02:43:17;4.20;;;3.90;;
76788;SDS011;65740;52.464;13.446;2023-07-31T02:45:43;3.77;;;3.53;;
76788;SDS011;65740;52.464;13.446;2023-07-31T02:48:08;3.90;;;3.70;;
76788;SDS011;65740;52.464;13.446;2023-07-31T02:50:34;3.47;;;3.27;;
76788;SDS011;65740;52.464;13.446;2023-07-31T02:53:00;4.17;;;3.87;;
76788;SDS011;65740;52.464;13.446;2023-07-31T02:55:25;3.43;;;3.23;;
76788;SDS011;65740;52.464;13.446;2023-07-31T02:57:51;3.97;;;3.67;;
76788;SDS011;65740;52.464;13.446;2023-07-31T03:00:17;3.90;;;3.70;;
76788;SDS011;65740;52.464;13.446;2023-07-31T03:02:43;4.13;;;3.83;;
76788;SDS011;65740;52.464;13.446;2023-07-31T03:05:08;3.60;;;3.40;;
76788;SDS011;65740;52.464;13.446;2023-07-31T03:07:34;3.60;;;3.40;;
76788;SDS011;65740;52.464;13.446;2023-07-31T03:09:59;3.33;;;3.13;;
76788;SDS011;65740;52.464;13.446;2023-07-31T03:12:25;3.43;;;3.23;;
76788;SDS011;65740;52.464;13.446;2023-07-31T03:14:51;4.10;;;3.90;;
76788;SDS011;65740;52.464;13.446;2023-07-31T03:17:16;3.87;;;3.67;;
76788;SDS011;65740;52.464;13.446;2023-07-31T03:19:42;4.10;;;3.90;;
76788;SDS011;65740;52.464;13.446;2023-07-31T03:22:07;4.30;;;4.00;;
76788;SDS011;65740;52.464;13.446;2023-07-31T03:24:33;4.10;;;3.90;;
76788;SDS011;65740;52.464;13.446;2023-07-31T03:26:58;3.90;;;3.70;;
76788;SDS011;65740;52.464;13.446;2023-07-31T03:29:24;3.90;;;3.70;;
76788;SDS011;65740;52.464;13.446;2023-07-31T03:31:50;4.00;;;3.70;;
76788;SDS011;65740;52.464;13.446;2023-07-31T03:34:15;3.37;;;3.17;;
76788;SDS011;65740;52.464;13.446;2023-07-31T03:36:41;4.10;;;3.90;;
76788;SDS011;65740;52.464;13.446;2023-07-31T03:39:06;4.63;;;4.43;;
76788;SDS011;65740;52.464;13.446;2023-07-31T03:41:32;4.00;;;3.80;;
76788;SDS011;65740;52.464;13.446;2023-07-31T03:43:57;4.00;;;3.80;;
76788;SDS011;65740;52.464;13.446;2023-07-31T03:46:23;4.40;;;4.10;;
76788;SDS011;65740;52.464;13.446;2023-07-31T03:48:50;3.90;;;3.70;;
76788;SDS011;65740;52.464;13.446;2023-07-31T03:51:16;4.20;;;3.90;;
76788;SDS011;65740;52.464;13.446;2023-07-31T03:53:42;3.77;;;3.57;;
76788;SDS011;65740;52.464;13.446;2023-07-31T03:56:09;3.73;;;3.53;;
76788;SDS011;65740;52.464;13.446;2023-07-31T03:58:34;4.30;;;4.10;;
76788;SDS011;65740;52.464;13.446;2023-07-31T04:01:01;3.77;;;3.57;;
76788;SDS011;65740;52.464;13.446;2023-07-31T04:03:27;3.90;;;3.70;;
76788;SDS011;65740;52.464;13.446;2023-07-31T04:05:54;3.50;;;3.30;;
76788;SDS011;65740;52.464;13.446;2023-07-31T04:08:21;3.90;;;3.70;;
76788;SDS011;65740;52.464;13.446;2023-07-31T04:10:47;3.70;;;3.50;;
76788;SDS011;65740;52.464;13.446;2023-07-31T04:13:13;4.10;;;3.80;;
76788;SDS011;65740;52.464;13.446;2023-07-31T04:15:39;3.77;;;3.57;;
76788;SDS011;65740;52.464;13.446;2023-07-31T04:18:04;3.43;;;3.23;;
76788;SDS011;65740;52.464;13.446;2023-07-31T04:20:30;3.60;;;3.50;;
76788;SDS011;65740;52.464;13.446;2023-07-31T04:22:56;4.00;;;3.80;;
76788;SDS011;65740;52.464;13.446;2023-07-31T04:25:21;3.90;;;3.70;;
76788;SDS011;65740;52.464;13.446;2023-07-31T04:27:47;3.47;;;3.27;;
76788;SDS011;65740;52.464;13.446;2023-07-31T04:30:13;3.60;;;3.40;;
76788;SDS011;65740;52.464;13.446;2023-07-31T04:32:38;3.63;;;3.43;;
76788;SDS011;65740;52.464;13.446;2023-07-31T04:35:04;3.97;;;3.77;;
76788;SDS011;65740;52.464;13.446;2023-07-31T04:37:30;3.80;;;3.60;;
76788;SDS011;65740;52.464;13.446;2023-07-31T04:39:56;3.63;;;3.43;;
76788;SDS011;65740;52.464;13.446;2023-07-31T04:42:22;3.77;;;2.87;;
76788;SDS011;65740;52.464;13.446;2023-07-31T04:44:48;3.70;;;3.50;;
76788;SDS011;65740;52.464;13.446;2023-07-31T04:47:13;4.90;;;4.37;;
76788;SDS011;65740;52.464;13.446;2023-07-31T04:49:39;4.13;;;3.93;;
76788;SDS011;65740;52.464;13.446;2023-07-31T04:52:05;3.97;;;3.77;;
76788;SDS011;65740;52.464;13.446;2023-07-31T04:54:30;3.90;;;3.60;;
76788;SDS011;65740;52.464;13.446;2023-07-31T04:56:56;3.73;;;3.53;;
76788;SDS011;65740;52.464;13.446;2023-07-31T04:59:22;3.90;;;3.60;;
76788;SDS011;65740;52.464;13.446;2023-07-31T05:01:47;3.80;;;3.50;;
76788;SDS011;65740;52.464;13.446;2023-07-31T05:04:13;3.60;;;3.40;;
76788;SDS011;65740;52.464;13.446;2023-07-31T05:06:40;3.60;;;3.40;;
76788;SDS011;65740;52.464;13.446;2023-07-31T05:09:06;5.03;;;3.80;;
76788;SDS011;65740;52.464;13.446;2023-07-31T05:11:31;4.07;;;3.77;;
76788;SDS011;65740;52.464;13.446;2023-07-31T05:13:57;4.00;;;3.70;;
76788;SDS011;65740;52.464;13.446;2023-07-31T05:16:22;3.90;;;3.60;;
76788;SDS011;65740;52.464;13.446;2023-07-31T05:18:48;7.07;;;3.30;;
76788;SDS011;65740;52.464;13.446;2023-07-31T05:21:14;3.87;;;3.60;;
76788;SDS011;65740;52.464;13.446;2023-07-31T05:23:39;4.07;;;3.70;;
76788;SDS011;65740;52.464;13.446;2023-07-31T05:26:05;3.93;;;3.60;;
76788;SDS011;65740;52.464;13.446;2023-07-31T05:28:33;3.80;;;3.60;;
76788;SDS011;65740;52.464;13.446;2023-07-31T05:31:02;3.60;;;3.40;;
76788;SDS011;65740;52.464;13.446;2023-07-31T05:33:29;3.63;;;3.43;;
76788;SDS011;65740;52.464;13.446;2023-07-31T05:35:55;3.67;;;3.47;;
76788;SDS011;65740;52.464;13.446;2023-07-31T05:38:21;4.10;;;3.70;;
76788;SDS011;65740;52.464;13.446;2023-07-31T05:40:47;3.90;;;3.70;;
76788;SDS011;65740;52.464;13.446;2023-07-31T05:43:13;3.70;;;3.47;;
76788;SDS011;65740;52.464;13.446;2023-07-31T05:45:39;3.80;;;3.60;;
76788;SDS011;65740;52.464;13.446;2023-07-31T05:48:05;4.27;;;3.80;;
76788;SDS011;65740;52.464;13.446;2023-07-31T05:50:31;3.80;;;3.60;;
76788;SDS011;65740;52.464;13.446;2023-07-31T05:52:57;4.20;;;3.90;;
76788;SDS011;65740;52.464;13.446;2023-07-31T05:55:22;3.70;;;3.40;;
76788;SDS011;65740;52.464;13.446;2023-07-31T05:57:51;3.93;;;3.70;;
76788;SDS011;65740;52.464;13.446;2023-07-31T06:00:17;3.70;;;3.43;;
76788;SDS011;65740;52.464;13.446;2023-07-31T06:02:43;3.70;;;3.50;;
76788;SDS011;65740;52.464;13.446;2023-07-31T06:05:08;4.30;;;3.30;;
76788;SDS011;65740;52.464;13.446;2023-07-31T06:07:35;3.80;;;3.50;;
76788;SDS011;65740;52.464;13.446;2023-07-31T06:10:01;3.80;;;3.60;;
76788;SDS011;65740;52.464;13.446;2023-07-31T06:12:30;3.80;;;3.60;;
76788;SDS011;65740;52.464;13.446;2023-07-31T06:14:58;4.00;;;3.63;;
76788;SDS011;65740;52.464;13.446;2023-07-31T06:17:24;3.97;;;3.67;;
76788;SDS011;65740;52.464;13.446;2023-07-31T06:19:51;3.73;;;3.43;;
76788;SDS011;65740;52.464;13.446;2023-07-31T06:22:16;4.00;;;3.80;;
76788;SDS011;65740;52.464;13.446;2023-07-31T06:24:43;3.53;;;3.33;;
76788;SDS011;65740;52.464;13.446;2023-07-31T06:27:08;3.87;;;3.67;;
76788;SDS011;65740;52.464;13.446;2023-07-31T06:29:34;3.30;;;3.20;;
76788;SDS011;65740;52.464;13.446;2023-07-31T06:32:00;3.80;;;3.60;;
76788;SDS011;65740;52.464;13.446;2023-07-31T06:34:26;4.07;;;3.87;;
76788;SDS011;65740;52.464;13.446;2023-07-31T06:36:51;4.70;;;4.30;;
76788;SDS011;65740;52.464;13.446;2023-07-31T06:39:17;3.30;;;3.10;;
76788;SDS011;65740;52.464;13.446;2023-07-31T06:41:43;3.80;;;3.60;;
76788;SDS011;65740;52.464;13.446;2023-07-31T06:44:09;3.60;;;3.40;;
76788;SDS011;65740;52.464;13.446;2023-07-31T06:46:35;3.70;;;3.40;;
76788;SDS011;65740;52.464;13.446;2023-07-31T06:49:00;3.93;;;3.73;;
76788;SDS011;65740;52.464;13.446;2023-07-31T06:51:26;4.17;;;3.97;;
76788;SDS011;65740;52.464;13.446;2023-07-31T06:53:51;3.60;;;3.40;;
76788;SDS011;65740;52.464;13.446;2023-07-31T06:56:17;4.03;;;3.63;;
76788;SDS011;65740;52.464;13.446;2023-07-31T06:58:42;3.70;;;3.50;;
76788;SDS011;65740;52.464;13.446;2023-07-31T07:01:08;3.97;;;3.77;;
76788;SDS011;65740;52.464;13.446;2023-07-31T07:03:34;3.80;;;3.60;;
76788;SDS011;65740;52.464;13.446;2023-07-31T07:05:59;4.43;;;3.97;;
76788;SDS011;65740;52.464;13.446;2023-07-31T07:08:25;4.00;;;3.70;;
76788;SDS011;65740;52.464;13.446;2023-07-31T07:10:51;3.80;;;3.50;;
76788;SDS011;65740;52.464;13.446;2023-07-31T07:13:17;4.23;;;3.83;;
76788;SDS011;65740;52.464;13.446;2023-07-31T07:15:43;4.87;;;4.40;;
76788;SDS011;65740;52.464;13.446;2023-07-31T07:18:18;4.73;;;4.30;;
76788;SDS011;65740;52.464;13.446;2023-07-31T07:20:47;4.27;;;3.87;;
76788;SDS011;65740;52.464;13.446;2023-07-31T07:23:17;5.50;;;4.27;;
76788;SDS011;65740;52.464;13.446;2023-07-31T07:25:43;4.33;;;4.03;;
76788;SDS011;65740;52.464;13.446;2023-07-31T07:28:10;4.00;;;3.63;;
76788;SDS011;65740;52.464;13.446;2023-07-31T07:30:35;10.43;;;4.50;;
76788;SDS011;65740;52.464;13.446;2023-07-31T07:33:02;3.90;;;3.60;;
76788;SDS011;65740;52.464;13.446;2023-07-31T07:35:27;5.37;;;4.33;;
76788;SDS011;65740;52.464;13.446;2023-07-31T07:37:53;5.07;;;4.57;;
76788;SDS011;65740;52.464;13.446;2023-07-31T07:40:20;5.77;;;4.60;;
76788;SDS011;65740;52.464;13.446;2023-07-31T07:42:45;6.70;;;4.40;;
76788;SDS011;65740;52.464;13.446;2023-07-31T07:45:11;4.70;;;4.30;;
76788;SDS011;65740;52.464;13.446;2023-07-31T07:47:38;4.70;;;4.40;;
76788;SDS011;65740;52.464;13.446;2023-07-31T07:50:06;4.37;;;4.07;;
76788;SDS011;65740;52.464;13.446;2023-07-31T07:52:32;4.53;;;4.23;;
76788;SDS011;65740;52.464;13.446;2023-07-31T07:54:57;4.63;;;4.23;;
76788;SDS011;65740;52.464;13.446;2023-07-31T07:57:23;4.37;;;4.07;;
76788;SDS011;65740;52.464;13.446;2023-07-31T07:59:48;4.60;;;4.30;;
76788;SDS011;65740;52.464;13.446;2023-07-31T08:02:14;4.43;;;4.03;;
76788;SDS011;65740;52.464;13.446;2023-07-31T08:04:39;4.30;;;4.00;;
76788;SDS011;65740;52.464;13.446;2023-07-31T08:07:05;4.23;;;3.83;;
76788;SDS011;65740;52.464;13.446;2023-07-31T08:09:31;4.93;;;4.60;;
76788;SDS011;65740;52.464;13.446;2023-07-31T08:11:56;4.47;;;4.17;;
76788;SDS011;65740;52.464;13.446;2023-07-31T08:14:27;5.73;;;4.20;;
76788;SDS011;65740;52.464;13.446;2023-07-31T08:16:52;6.17;;;4.07;;
76788;SDS011;65740;52.464;13.446;2023-07-31T08:19:18;4.60;;;4.00;;
76788;SDS011;65740;52.464;13.446;2023-07-31T08:21:44;6.03;;;4.20;;
76788;SDS011;65740;52.464;13.446;2023-07-31T08:24:09;6.03;;;4.30;;
76788;SDS011;65740;52.464;13.446;2023-07-31T08:26:35;4.10;;;3.80;;
76788;SDS011;65740;52.464;13.446;2023-07-31T08:29:01;5.70;;;4.17;;
76788;SDS011;65740;52.464;13.446;2023-07-31T08:31:27;4.77;;;3.63;;
76788;SDS011;65740;52.464;13.446;2023-07-31T08:33:54;4.17;;;3.83;;
76788;SDS011;65740;52.464;13.446;2023-07-31T08:36:21;4.30;;;4.00;;
76788;SDS011;65740;52.464;13.446;2023-07-31T08:38:46;4.50;;;4.20;;
76788;SDS011;65740;52.464;13.446;2023-07-31T08:41:12;4.07;;;3.77;;
76788;SDS011;65740;52.464;13.446;2023-07-31T08:43:45;4.10;;;3.90;;
76788;SDS011;65740;52.464;13.446;2023-07-31T08:46:11;3.67;;;3.40;;
76788;SDS011;65740;52.464;13.446;2023-07-31T08:48:37;6.00;;;4.40;;
76788;SDS011;65740;52.464;13.446;2023-07-31T08:51:06;4.43;;;3.87;;
76788;SDS011;65740;52.464;13.446;2023-07-31T08:53:32;4.00;;;3.60;;
76788;SDS011;65740;52.464;13.446;2023-07-31T08:55:58;4.43;;;4.13;;
76788;SDS011;65740;52.464;13.446;2023-07-31T08:58:24;6.90;;;4.40;;
76788;SDS011;65740;52.464;13.446;2023-07-31T09:00:52;3.93;;;3.63;;
76788;SDS011;65740;52.464;13.446;2023-07-31T09:03:19;4.10;;;3.60;;
76788;SDS011;65740;52.464;13.446;2023-07-31T09:05:50;3.80;;;3.50;;
76788;SDS011;65740;52.464;13.446;2023-07-31T09:08:18;3.77;;;3.57;;
76788;SDS011;65740;52.464;13.446;2023-07-31T09:10:45;3.73;;;3.53;;
76788;SDS011;65740;52.464;13.446;2023-07-31T09:13:12;4.07;;;3.77;;
76788;SDS011;65740;52.464;13.446;2023-07-31T09:15:38;4.47;;;4.03;;
76788;SDS011;65740;52.464;13.446;2023-07-31T09:18:05;3.87;;;3.67;;
76788;SDS011;65740;52.464;13.446;2023-07-31T09:20:32;4.40;;;4.00;;
76788;SDS011;65740;52.464;13.446;2023-07-31T09:23:05;4.13;;;3.93;;
76788;SDS011;65740;52.464;13.446;2023-07-31T09:25:36;3.90;;;3.60;;
76788;SDS011;65740;52.464;13.446;2023-07-31T09:28:03;5.43;;;4.50;;
76788;SDS011;65740;52.464;13.446;2023-07-31T09:30:30;3.80;;;3.50;;
76788;SDS011;65740;52.464;13.446;2023-07-31T09:33:09;6.70;;;3.90;;
76788;SDS011;65740;52.464;13.446;2023-07-31T09:35:35;4.00;;;3.70;;
76788;SDS011;65740;52.464;13.446;2023-07-31T09:38:03;4.17;;;3.70;;
76788;SDS011;65740;52.464;13.446;2023-07-31T09:40:31;3.60;;;3.30;;
76788;SDS011;65740;52.464;13.446;2023-07-31T09:42:59;3.40;;;3.10;;
76788;SDS011;65740;52.464;13.446;2023-07-31T09:45:26;3.70;;;3.40;;
76788;SDS011;65740;52.464;13.446;2023-07-31T09:47:53;3.33;;;3.03;;
76788;SDS011;65740;52.464;13.446;2023-07-31T09:50:23;3.60;;;3.30;;
76788;SDS011;65740;52.464;13.446;2023-07-31T09:52:52;5.73;;;3.37;;
76788;SDS011;65740;52.464;13.446;2023-07-31T09:55:18;3.90;;;3.10;;
76788;SDS011;65740;52.464;13.446;2023-07-31T09:57:45;6.70;;;3.23;;
76788;SDS011;65740;52.464;13.446;2023-07-31T10:00:12;3.37;;;3.00;;
76788;SDS011;65740;52.464;13.446;2023-07-31T10:02:40;3.43;;;3.23;;
76788;SDS011;65740;52.464;13.446;2023-07-31T10:05:08;3.20;;;3.00;;
76788;SDS011;65740;52.464;13.446;2023-07-31T10:07:36;4.03;;;3.00;;
76788;SDS011;65740;52.464;13.446;2023-07-31T10:10:04;3.40;;;3.20;;
76788;SDS011;65740;52.464;13.446;2023-07-31T10:12:32;10.20;;;7.87;;
76788;SDS011;65740;52.464;13.446;2023-07-31T10:14:59;8.23;;;7.43;;
76788;SDS011;65740;52.464;13.446;2023-07-31T10:17:26;9.53;;;7.90;;
76788;SDS011;65740;52.464;13.446;2023-07-31T10:19:53;9.60;;;8.10;;
76788;SDS011;65740;52.464;13.446;2023-07-31T10:22:19;10.70;;;9.57;;
76788;SDS011;65740;52.464;13.446;2023-07-31T10:24:46;11.60;;;10.50;;
76788;SDS011;65740;52.464;13.446;2023-07-31T10:27:13;10.77;;;9.87;;
76788;SDS011;65740;52.464;13.446;2023-07-31T10:29:39;11.53;;;10.10;;
76788;SDS011;65740;52.464;13.446;2023-07-31T10:32:06;12.13;;;10.93;;
76788;SDS011;65740;52.464;13.446;2023-07-31T10:34:35;10.77;;;9.77;;
76788;SDS011;65740;52.464;13.446;2023-07-31T10:47:57;12.13;;;10.93;;
76788;SDS011;65740;52.464;13.446;2023-07-31T10:50:31;11.20;;;10.20;;
76788;SDS011;65740;52.464;13.446;2023-07-31T10:52:58;12.13;;;10.93;;
76788;SDS011;65740;52.464;13.446;2023-07-31T10:55:29;11.57;;;10.47;;
76788;SDS011;65740;52.464;13.446;2023-07-31T10:58:10;11.20;;;10.30;;
76788;SDS011;65740;52.464;13.446;2023-07-31T11:00:41;10.80;;;9.90;;
76788;SDS011;65740;52.464;13.446;2023-07-31T11:03:15;10.27;;;9.27;;
76788;SDS011;65740;52.464;13.446;2023-07-31T11:10:46;9.80;;;8.80;;
76788;SDS011;65740;52.464;13.446;2023-07-31T11:13:13;10.13;;;9.23;;
76788;SDS011;65740;52.464;13.446;2023-07-31T11:15:40;9.90;;;8.90;;
76788;SDS011;65740;52.464;13.446;2023-07-31T11:18:05;9.07;;;8.10;;
76788;SDS011;65740;52.464;13.446;2023-07-31T11:20:33;9.20;;;8.50;;
76788;SDS011;65740;52.464;13.446;2023-07-31T11:23:04;9.37;;;8.33;;
76788;SDS011;65740;52.464;13.446;2023-07-31T11:25:32;8.60;;;7.90;;
76788;SDS011;65740;52.464;13.446;2023-07-31T11:30:31;9.40;;;8.10;;
76788;SDS011;65740;52.464;13.446;2023-07-31T11:32:57;9.73;;;8.83;;
76788;SDS011;65740;52.464;13.446;2023-07-31T11:35:23;12.07;;;10.63;;
76788;SDS011;65740;52.464;13.446;2023-07-31T11:37:49;18.07;;;11.67;;
76788;SDS011;65740;52.464;13.446;2023-07-31T11:40:14;30.87;;;14.30;;
76788;SDS011;65740;52.464;13.446;2023-07-31T11:42:40;24.63;;;14.50;;
76788;SDS011;65740;52.464;13.446;2023-07-31T11:45:07;31.07;;;16.20;;
76788;SDS011;65740;52.464;13.446;2023-07-31T11:47:37;34.77;;;16.30;;
76788;SDS011;65740;52.464;13.446;2023-07-31T11:50:03;28.37;;;14.87;;
76788;SDS011;65740;52.464;13.446;2023-07-31T11:52:31;23.00;;;15.00;;
76788;SDS011;65740;52.464;13.446;2023-07-31T11:55:00;23.17;;;14.77;;
76788;SDS011;65740;52.464;13.446;2023-07-31T11:57:26;24.33;;;14.40;;
76788;SDS011;65740;52.464;13.446;2023-07-31T11:59:53;29.53;;;14.67;;
76788;SDS011;65740;52.464;13.446;2023-07-31T12:02:20;24.93;;;14.10;;
76788;SDS011;65740;52.464;13.446;2023-07-31T12:04:46;34.73;;;14.07;;
76788;SDS011;65740;52.464;13.446;2023-07-31T12:07:13;21.73;;;14.17;;
76788;SDS011;65740;52.464;13.446;2023-07-31T12:09:39;39.63;;;13.70;;
76788;SDS011;65740;52.464;13.446;2023-07-31T12:12:25;21.10;;;12.10;;
76788;SDS011;65740;52.464;13.446;2023-07-31T12:14:51;18.73;;;11.33;;
76788;SDS011;65740;52.464;13.446;2023-07-31T12:17:18;15.00;;;10.87;;
76788;SDS011;65740;52.464;13.446;2023-07-31T12:19:45;21.33;;;12.03;;
76788;SDS011;65740;52.464;13.446;2023-07-31T12:22:13;19.60;;;11.10;;
76788;SDS011;65740;52.464;13.446;2023-07-31T12:24:41;15.60;;;10.37;;
76788;SDS011;65740;52.464;13.446;2023-07-31T12:27:13;12.50;;;8.60;;
76788;SDS011;65740;52.464;13.446;2023-07-31T12:29:41;15.10;;;9.57;;
76788;SDS011;65740;52.464;13.446;2023-07-31T12:32:25;14.27;;;9.27;;
76788;SDS011;65740;52.464;13.446;2023-07-31T12:34:53;13.50;;;9.80;;
76788;SDS011;65740;52.464;13.446;2023-07-31T12:37:20;12.83;;;9.23;;
76788;SDS011;65740;52.464;13.446;2023-07-31T12:39:46;12.27;;;8.60;;
76788;SDS011;65740;52.464;13.446;2023-07-31T12:42:11;12.40;;;8.17;;
76788;SDS011;65740;52.464;13.446;2023-07-31T12:44:37;13.93;;;8.77;;
76788;SDS011;65740;52.464;13.446;2023-07-31T12:47:02;12.10;;;8.30;;
76788;SDS011;65740;52.464;13.446;2023-07-31T12:49:30;8.40;;;7.13;;
76788;SDS011;65740;52.464;13.446;2023-07-31T12:51:55;9.03;;;6.83;;
76788;SDS011;65740;52.464;13.446;2023-07-31T12:54:21;9.10;;;6.87;;
76788;SDS011;65740;52.464;13.446;2023-07-31T12:56:46;9.90;;;8.07;;
76788;SDS011;65740;52.464;13.446;2023-07-31T12:59:12;9.27;;;8.00;;
76788;SDS011;65740;52.464;13.446;2023-07-31T13:01:39;7.90;;;6.87;;
76788;SDS011;65740;52.464;13.446;2023-07-31T13:04:04;9.50;;;7.00;;
76788;SDS011;65740;52.464;13.446;2023-07-31T13:06:30;7.60;;;6.17;;
76788;SDS011;65740;52.464;13.446;2023-07-31T13:08:56;7.30;;;6.37;;
76788;SDS011;65740;52.464;13.446;2023-07-31T13:11:21;8.07;;;6.97;;
76788;SDS011;65740;52.464;13.446;2023-07-31T13:13:47;7.70;;;5.93;;
76788;SDS011;65740;52.464;13.446;2023-07-31T13:16:12;8.00;;;6.23;;
76788;SDS011;65740;52.464;13.446;2023-07-31T13:18:38;11.73;;;6.30;;
76788;SDS011;65740;52.464;13.446;2023-07-31T13:21:03;9.33;;;5.77;;
76788;SDS011;65740;52.464;13.446;2023-07-31T13:23:30;7.80;;;5.23;;
76788;SDS011;65740;52.464;13.446;2023-07-31T13:25:56;6.40;;;5.80;;
76788;SDS011;65740;52.464;13.446;2023-07-31T13:28:21;6.27;;;5.30;;
76788;SDS011;65740;52.464;13.446;2023-07-31T13:30:47;7.80;;;4.90;;
76788;SDS011;65740;52.464;13.446;2023-07-31T13:33:12;17.47;;;5.50;;
76788;SDS011;65740;52.464;13.446;2023-07-31T13:35:38;5.87;;;5.37;;
76788;SDS011;65740;52.464;13.446;2023-07-31T13:38:04;7.17;;;5.37;;
76788;SDS011;65740;52.464;13.446;2023-07-31T13:40:30;14.73;;;5.77;;
76788;SDS011;65740;52.464;13.446;2023-07-31T13:42:56;6.30;;;5.70;;
76788;SDS011;65740;52.464;13.446;2023-07-31T13:45:21;7.73;;;5.50;;
76788;SDS011;65740;52.464;13.446;2023-07-31T13:47:48;8.00;;;6.17;;
76788;SDS011;65740;52.464;13.446;2023-07-31T13:50:15;13.00;;;5.50;;
76788;SDS011;65740;52.464;13.446;2023-07-31T13:52:41;5.63;;;5.10;;
76788;SDS011;65740;52.464;13.446;2023-07-31T13:55:07;10.37;;;6.10;;
76788;SDS011;65740;52.464;13.446;2023-07-31T13:57:33;7.30;;;6.20;;
76788;SDS011;65740;52.464;13.446;2023-07-31T13:59:59;11.60;;;10.40;;
76788;SDS011;65740;52.464;13.446;2023-07-31T14:02:25;13.57;;;12.17;;
76788;SDS011;65740;52.464;13.446;2023-07-31T14:04:51;12.50;;;11.30;;
76788;SDS011;65740;52.464;13.446;2023-07-31T14:07:17;16.90;;;15.10;;
76788;SDS011;65740;52.464;13.446;2023-07-31T14:09:43;16.27;;;14.30;;
76788;SDS011;65740;52.464;13.446;2023-07-31T14:12:09;15.97;;;14.30;;
76788;SDS011;65740;52.464;13.446;2023-07-31T14:14:35;15.20;;;13.60;;
76788;SDS011;65740;52.464;13.446;2023-07-31T14:17:00;16.73;;;12.53;;
76788;SDS011;65740;52.464;13.446;2023-07-31T14:19:26;14.60;;;13.20;;
76788;SDS011;65740;52.464;13.446;2023-07-31T14:21:52;14.27;;;12.80;;
76788;SDS011;65740;52.464;13.446;2023-07-31T14:24:18;17.63;;;14.10;;
76788;SDS011;65740;52.464;13.446;2023-07-31T14:26:43;15.50;;;13.90;;
76788;SDS011;65740;52.464;13.446;2023-07-31T14:29:09;16.80;;;13.67;;
76788;SDS011;65740;52.464;13.446;2023-07-31T14:31:35;15.73;;;14.23;;
76788;SDS011;65740;52.464;13.446;2023-07-31T14:34:01;14.17;;;12.73;;
76788;SDS011;65740;52.464;13.446;2023-07-31T14:36:26;14.63;;;13.23;;
76788;SDS011;65740;52.464;13.446;2023-07-31T14:38:52;15.20;;;13.70;;
76788;SDS011;65740;52.464;13.446;2023-07-31T14:41:18;13.80;;;12.50;;
76788;SDS011;65740;52.464;13.446;2023-07-31T14:43:43;13.20;;;11.80;;
76788;SDS011;65740;52.464;13.446;2023-07-31T14:46:09;13.50;;;12.20;;
76788;SDS011;65740;52.464;13.446;2023-07-31T14:48:34;13.67;;;11.83;;
76788;SDS011;65740;52.464;13.446;2023-07-31T14:51:00;12.57;;;11.37;;
76788;SDS011;65740;52.464;13.446;2023-07-31T14:53:26;12.13;;;10.83;;
76788;SDS011;65740;52.464;13.446;2023-07-31T14:55:51;13.40;;;9.87;;